createdAt,value
2023-05-13T00:02:02.399Z,11.20
2023-05-13T00:04:29.508Z,11.30
2023-05-13T00:06:56.571Z,11.30
2023-05-13T00:09:23.582Z,11.30
2023-05-13T00:11:50.779Z,11.30
2023-05-13T00:14:17.789Z,11.10
2023-05-13T00:16:44.995Z,11.10
2023-05-13T00:19:12.447Z,11.30
2023-05-13T00:21:39.779Z,11.30
2023-05-13T00:24:07.637Z,11.30
2023-05-13T00:26:34.722Z,11.50
2023-05-13T00:29:01.893Z,11.30
2023-05-13T00:31:29.230Z,11.40
2023-05-13T00:33:56.342Z,11.40
2023-05-13T00:36:23.964Z,11.40
2023-05-13T00:38:50.987Z,11.30
2023-05-13T00:41:18.710Z,11.30
2023-05-13T00:43:45.810Z,11.40
2023-05-13T00:46:13.710Z,11.40
2023-05-13T00:48:40.931Z,11.40
2023-05-13T00:51:08.384Z,11.40
2023-05-13T00:53:36.408Z,11.50
2023-05-13T00:56:03.531Z,11.40
2023-05-13T00:58:30.670Z,11.40
2023-05-13T01:01:16.567Z,11.30
2023-05-13T01:04:05.266Z,11.20
2023-05-13T01:06:56.974Z,11.20
2023-05-13T01:09:26.791Z,11.20
2023-05-13T01:11:56.296Z,11.20
2023-05-13T01:14:29.424Z,11.20
2023-05-13T01:17:02.565Z,11.20
2023-05-13T01:19:44.723Z,10.90
2023-05-13T01:22:11.863Z,10.80
2023-05-13T01:24:38.943Z,10.70
2023-05-13T01:27:06.613Z,10.70
2023-05-13T01:29:33.800Z,10.50
2023-05-13T01:32:03.437Z,10.60
2023-05-13T01:34:32.128Z,10.80
2023-05-13T01:37:00.217Z,10.70
2023-05-13T01:39:29.815Z,10.80
2023-05-13T01:42:00.368Z,10.90
2023-05-13T01:44:28.007Z,11.00
2023-05-13T01:46:55.628Z,10.80
2023-05-13T01:49:23.021Z,10.70
2023-05-13T01:51:50.089Z,10.80
2023-05-13T01:54:17.173Z,10.80
2023-05-13T01:56:49.549Z,10.90
2023-05-13T01:59:16.655Z,10.90
2023-05-13T02:01:45.078Z,10.90
2023-05-13T02:04:12.203Z,10.90
2023-05-13T02:06:41.897Z,11.00
2023-05-13T02:09:09.677Z,10.90
2023-05-13T02:11:40.050Z,10.90
2023-05-13T02:14:07.215Z,10.90
2023-05-13T02:16:35.261Z,11.00
2023-05-13T02:19:06.175Z,11.00
2023-05-13T02:21:33.469Z,11.00
2023-05-13T02:24:00.560Z,10.90
2023-05-13T02:26:29.148Z,10.90
2023-05-13T02:28:56.216Z,10.90
2023-05-13T02:31:23.335Z,10.90
2023-05-13T02:33:50.499Z,11.00
2023-05-13T02:36:18.046Z,11.00
2023-05-13T02:38:45.673Z,11.00
2023-05-13T02:41:15.671Z,11.00
2023-05-13T02:43:42.921Z,10.90
2023-05-13T02:46:10.092Z,11.00
2023-05-13T02:48:37.190Z,11.00
2023-05-13T02:51:04.261Z,10.80
2023-05-13T02:53:31.501Z,10.90
2023-05-13T02:56:03.592Z,10.80
2023-05-13T02:58:30.767Z,10.90
2023-05-13T03:00:59.165Z,10.90
2023-05-13T03:03:26.765Z,10.70
2023-05-13T03:05:53.883Z,10.70
2023-05-13T03:08:21.264Z,10.80
2023-05-13T03:10:48.331Z,10.80
2023-05-13T03:13:15.554Z,10.90
2023-05-13T03:15:44.357Z,10.80
2023-05-13T03:18:12.357Z,10.70
2023-05-13T03:20:39.858Z,10.70
2023-05-13T03:23:08.159Z,10.50
2023-05-13T03:25:35.866Z,10.60
2023-05-13T03:28:04.288Z,10.60
2023-05-13T03:30:36.436Z,10.70
2023-05-13T03:33:07.698Z,10.80
2023-05-13T03:35:34.762Z,10.90
2023-05-13T03:38:02.475Z,10.90
2023-05-13T03:40:30.692Z,10.90
2023-05-13T03:42:57.811Z,10.90
2023-05-13T03:45:25.057Z,10.90
2023-05-13T03:47:56.837Z,10.90
2023-05-13T03:50:25.191Z,10.90
2023-05-13T03:52:53.004Z,10.90
2023-05-13T03:55:21.851Z,11.10
2023-05-13T03:57:49.742Z,11.00
2023-05-13T04:00:19.827Z,11.00
2023-05-13T04:02:48.685Z,10.90
2023-05-13T04:05:16.003Z,10.80
2023-05-13T04:07:43.163Z,10.70
2023-05-13T04:10:13.799Z,10.80
2023-05-13T04:12:42.483Z,10.90
2023-05-13T04:15:09.949Z,11.00
2023-05-13T04:17:37.068Z,11.00
2023-05-13T04:20:04.434Z,11.00
2023-05-13T04:22:31.541Z,10.90
2023-05-13T04:24:58.634Z,11.00
2023-05-13T04:27:25.767Z,11.00
2023-05-13T04:30:02.930Z,11.00
2023-05-13T04:32:32.912Z,11.00
2023-05-13T04:35:00.603Z,10.90
2023-05-13T04:37:29.996Z,10.90
2023-05-13T04:40:00.839Z,10.80
2023-05-13T04:42:28.487Z,10.90
2023-05-13T04:44:55.618Z,11.00
2023-05-13T04:47:23.103Z,10.90
2023-05-13T04:49:50.108Z,10.80
2023-05-13T04:52:17.942Z,10.80
2023-05-13T04:54:45.091Z,10.90
2023-05-13T04:57:12.290Z,10.90
2023-05-13T04:59:39.472Z,10.80
2023-05-13T05:02:08.283Z,11.00
2023-05-13T05:04:35.799Z,10.90
2023-05-13T05:07:06.949Z,11.00
2023-05-13T05:09:34.189Z,11.00
2023-05-13T05:12:01.283Z,11.10
2023-05-13T05:14:33.943Z,11.10
2023-05-13T05:17:01.011Z,11.20
2023-05-13T05:19:28.186Z,11.10
2023-05-13T05:21:56.324Z,11.20
2023-05-13T05:24:23.787Z,11.10
2023-05-13T05:26:50.885Z,11.20
2023-05-13T05:29:18.064Z,11.10
2023-05-13T05:31:45.647Z,11.10
2023-05-13T05:34:12.766Z,11.20
2023-05-13T05:36:40.134Z,11.10
2023-05-13T05:39:07.148Z,11.20
2023-05-13T05:41:36.677Z,11.20
2023-05-13T05:44:03.797Z,11.20
2023-05-13T05:46:32.370Z,11.30
2023-05-13T05:49:03.577Z,11.20
2023-05-13T05:51:33.548Z,11.20
2023-05-13T05:54:02.597Z,11.30
2023-05-13T05:56:29.964Z,11.30
2023-05-13T05:58:57.083Z,11.30
2023-05-13T06:01:24.226Z,11.20
2023-05-13T06:03:53.129Z,11.30
2023-05-13T06:06:22.213Z,11.40
2023-05-13T06:08:49.234Z,11.50
2023-05-13T06:11:16.470Z,11.50
2023-05-13T06:13:44.151Z,11.50
2023-05-13T06:16:11.233Z,11.50
2023-05-13T06:18:41.359Z,11.60
2023-05-13T06:21:08.726Z,11.50
2023-05-13T06:23:36.015Z,11.50
2023-05-13T06:26:03.078Z,11.50
2023-05-13T06:28:30.126Z,11.60
2023-05-13T06:30:57.541Z,11.60
2023-05-13T06:33:24.849Z,11.60
2023-05-13T06:35:53.479Z,11.60
2023-05-13T06:38:22.361Z,11.60
2023-05-13T06:40:52.662Z,11.70
2023-05-13T06:43:26.228Z,11.80
2023-05-13T06:45:57.830Z,11.80
2023-05-13T06:48:27.027Z,11.70
2023-05-13T06:50:54.098Z,11.80
2023-05-13T06:53:21.241Z,11.80
2023-05-13T06:55:50.457Z,11.70
2023-05-13T06:58:17.789Z,11.70
2023-05-13T07:00:46.905Z,11.70
2023-05-13T07:03:14.058Z,11.80
2023-05-13T07:05:41.192Z,11.80
2023-05-13T07:08:08.800Z,11.80
2023-05-13T07:10:37.060Z,11.80
2023-05-13T07:13:04.797Z,11.80
2023-05-13T07:15:31.865Z,11.80
2023-05-13T07:17:58.997Z,11.80
2023-05-13T07:20:26.623Z,11.80
2023-05-13T07:22:53.864Z,11.80
2023-05-13T07:25:21.099Z,11.80
2023-05-13T07:27:48.483Z,11.80
2023-05-13T07:30:15.772Z,11.70
2023-05-13T07:32:42.878Z,11.60
2023-05-13T07:35:10.619Z,11.70
2023-05-13T07:37:37.632Z,11.80
2023-05-13T07:40:08.173Z,11.80
2023-05-13T07:42:35.465Z,11.80
2023-05-13T07:45:02.724Z,11.90
2023-05-13T07:47:31.489Z,12.00
2023-05-13T07:49:58.545Z,12.10
2023-05-13T07:52:26.428Z,12.10
2023-05-13T07:54:54.707Z,12.10
2023-05-13T07:57:21.748Z,12.20
2023-05-13T07:59:48.852Z,12.10
2023-05-13T08:02:15.907Z,12.10
2023-05-13T08:04:43.019Z,12.20
2023-05-13T08:07:11.790Z,12.20
2023-05-13T08:09:38.972Z,12.20
2023-05-13T08:12:06.536Z,12.20
2023-05-13T08:14:33.590Z,12.20
2023-05-13T08:17:01.126Z,12.20
2023-05-13T08:19:28.250Z,12.20
2023-05-13T08:21:55.476Z,12.20
2023-05-13T08:24:22.476Z,12.20
2023-05-13T08:26:49.548Z,12.20
2023-05-13T08:29:16.588Z,12.20
2023-05-13T08:31:43.721Z,12.20
2023-05-13T08:34:11.144Z,12.20
2023-05-13T08:36:38.206Z,12.10
2023-05-13T08:39:05.378Z,12.10
2023-05-13T08:41:34.140Z,12.10
2023-05-13T08:44:06.851Z,12.10
2023-05-13T08:46:35.077Z,12.20
2023-05-13T08:49:02.697Z,12.20
2023-05-13T08:51:30.084Z,12.20
2023-05-13T08:53:57.174Z,12.20
2023-05-13T08:56:28.411Z,12.20
2023-05-13T08:58:55.563Z,12.20
2023-05-13T09:01:24.156Z,12.20
2023-05-13T09:04:04.545Z,12.10
2023-05-13T09:06:32.370Z,12.20
2023-05-13T09:08:59.578Z,12.30
2023-05-13T09:11:26.936Z,12.30
2023-05-13T09:13:58.859Z,12.20
2023-05-13T09:16:28.911Z,12.30
2023-05-13T09:19:05.026Z,12.30
2023-05-13T09:21:36.086Z,12.30
2023-05-13T09:24:11.968Z,12.30
2023-05-13T09:26:40.973Z,12.20
2023-05-13T09:29:21.894Z,12.20
2023-05-13T09:31:54.742Z,12.30
2023-05-13T09:34:33.428Z,12.50
2023-05-13T09:37:05.480Z,12.80
2023-05-13T09:39:41.548Z,12.90
2023-05-13T09:42:16.848Z,12.80
2023-05-13T09:44:45.525Z,12.80
2023-05-13T09:47:17.077Z,12.70
2023-05-13T09:49:45.752Z,12.70
2023-05-13T09:52:17.204Z,12.70
2023-05-13T09:54:44.740Z,12.70
2023-05-13T09:57:13.738Z,12.70
2023-05-13T09:59:41.416Z,12.70
2023-05-13T10:02:09.068Z,12.70
2023-05-13T10:04:37.612Z,12.70
2023-05-13T10:07:05.883Z,12.70
2023-05-13T10:09:36.628Z,12.70
2023-05-13T10:12:06.830Z,12.70
2023-05-13T10:14:34.777Z,12.70
2023-05-13T10:17:02.940Z,12.60
2023-05-13T10:19:32.224Z,12.70
2023-05-13T10:22:00.452Z,12.70
2023-05-13T10:24:29.064Z,12.80
2023-05-13T10:26:57.778Z,12.90
2023-05-13T10:29:26.600Z,13.00
2023-05-13T10:31:55.607Z,13.20
2023-05-13T10:34:23.856Z,13.20
2023-05-13T10:37:10.215Z,13.30
2023-05-13T10:40:18.107Z,13.40
2023-05-13T10:43:09.674Z,13.40
2023-05-13T10:45:38.153Z,13.50
2023-05-13T10:48:12.341Z,13.60
2023-05-13T10:50:40.027Z,13.70
2023-05-13T10:53:18.670Z,13.60
2023-05-13T10:55:46.398Z,13.60
2023-05-13T10:58:15.163Z,13.70
2023-05-13T11:00:46.083Z,13.80
2023-05-13T11:03:15.769Z,13.90
2023-05-13T11:06:33.034Z,13.90
2023-05-13T11:09:00.282Z,13.70
2023-05-13T11:11:33.303Z,13.60
2023-05-13T11:14:00.393Z,13.60
2023-05-13T11:16:27.605Z,13.60
2023-05-13T11:18:54.931Z,13.70
2023-05-13T11:21:39.800Z,13.60
2023-05-13T11:24:08.139Z,13.60
2023-05-13T11:26:45.819Z,13.60
2023-05-13T11:29:13.886Z,13.60
2023-05-13T11:31:50.230Z,13.70
2023-05-13T11:34:18.656Z,13.70
2023-05-13T11:36:49.925Z,13.70
2023-05-13T11:39:21.597Z,13.70
2023-05-13T11:41:52.769Z,13.70
2023-05-13T11:44:25.379Z,13.70
2023-05-13T11:46:57.729Z,13.70
2023-05-13T11:49:30.812Z,13.80
2023-05-13T11:52:00.004Z,13.90
2023-05-13T11:54:27.549Z,14.00
2023-05-13T11:56:54.580Z,14.00
2023-05-13T11:59:22.656Z,13.90
2023-05-13T12:02:00.659Z,14.00
2023-05-13T12:04:29.613Z,14.00
2023-05-13T12:06:57.454Z,14.20
2023-05-13T12:09:25.106Z,14.30
2023-05-13T12:11:52.854Z,14.40
2023-05-13T12:14:23.303Z,14.40
2023-05-13T12:16:51.670Z,14.40
2023-05-13T12:19:20.095Z,14.20
2023-05-13T12:21:49.694Z,14.10
2023-05-13T12:24:21.020Z,14.10
2023-05-13T12:26:48.430Z,13.90
2023-05-13T12:29:15.947Z,13.90
2023-05-13T12:31:44.231Z,13.90
2023-05-13T12:34:11.351Z,14.00
2023-05-13T12:36:39.883Z,14.10
2023-05-13T12:39:11.677Z,14.10
2023-05-13T12:41:40.570Z,14.10
2023-05-13T12:44:16.271Z,14.10
2023-05-13T12:46:54.256Z,14.10
2023-05-13T12:49:22.330Z,14.00
2023-05-13T12:51:51.690Z,14.10
2023-05-13T12:54:19.027Z,14.20
2023-05-13T12:56:46.253Z,14.30
2023-05-13T12:59:14.466Z,14.40
2023-05-13T13:01:43.013Z,14.40
2023-05-13T13:04:10.560Z,14.40
2023-05-13T13:06:37.850Z,14.40
2023-05-13T13:09:06.027Z,14.30
2023-05-13T13:11:33.204Z,14.30
2023-05-13T13:14:00.327Z,14.30
2023-05-13T13:16:27.606Z,14.20
2023-05-13T13:18:58.951Z,14.20
2023-05-13T13:21:26.997Z,14.30
2023-05-13T13:23:54.094Z,14.40
2023-05-13T13:26:23.179Z,14.40
2023-05-13T13:28:50.276Z,14.40
2023-05-13T13:31:17.391Z,14.50
2023-05-13T13:33:44.693Z,14.50
2023-05-13T13:36:11.865Z,14.70
2023-05-13T13:38:38.906Z,15.30
2023-05-13T13:41:06.289Z,15.70
2023-05-13T13:43:33.328Z,15.70
2023-05-13T13:46:00.534Z,15.80
2023-05-13T13:48:27.630Z,15.90
2023-05-13T13:50:55.129Z,15.70
2023-05-13T13:53:22.452Z,15.50
2023-05-13T13:55:49.508Z,15.40
2023-05-13T13:58:16.568Z,16.00
2023-05-13T14:00:43.648Z,16.00
2023-05-13T14:03:10.879Z,15.70
2023-05-13T14:05:38.054Z,16.10
2023-05-13T14:08:05.401Z,16.60
2023-05-13T14:10:32.624Z,17.10
2023-05-13T14:12:59.800Z,17.50
2023-05-13T14:16:07.056Z,17.50
2023-05-13T14:18:34.188Z,17.30
2023-05-13T14:21:01.200Z,16.90
2023-05-13T14:23:28.215Z,16.70
2023-05-13T14:25:55.248Z,16.40
2023-05-13T14:28:24.411Z,16.40
2023-05-13T14:30:52.132Z,16.40
2023-05-13T14:33:19.184Z,16.30
2023-05-13T14:35:46.262Z,16.80
2023-05-13T14:38:13.343Z,17.30
2023-05-13T14:40:40.379Z,17.20
2023-05-13T14:43:07.455Z,17.40
2023-05-13T14:45:35.896Z,17.80
2023-05-13T14:48:03.399Z,18.00
2023-05-13T14:50:30.499Z,17.80
2023-05-13T14:52:57.682Z,18.10
2023-05-13T14:55:24.778Z,18.30
2023-05-13T14:57:52.002Z,18.60
2023-05-13T15:00:19.268Z,18.50
2023-05-13T15:02:46.566Z,17.90
2023-05-13T15:05:13.799Z,17.40
2023-05-13T15:07:41.380Z,17.00
2023-05-13T15:10:08.953Z,16.60
2023-05-13T15:12:36.087Z,16.10
2023-05-13T15:15:04.868Z,15.90
2023-05-13T15:17:32.043Z,15.90
2023-05-13T15:19:59.130Z,15.80
2023-05-13T15:22:26.196Z,15.80
2023-05-13T15:24:53.279Z,15.70
2023-05-13T15:27:20.644Z,15.80
2023-05-13T15:29:48.733Z,15.70
2023-05-13T15:32:15.798Z,15.70
2023-05-13T15:34:43.549Z,15.40
2023-05-13T15:37:10.617Z,15.40
2023-05-13T15:39:37.716Z,15.50
2023-05-13T15:42:04.936Z,15.60
2023-05-13T15:44:31.963Z,15.50
2023-05-13T15:46:59.178Z,15.20
2023-05-13T15:49:27.403Z,15.30
2023-05-13T15:51:56.109Z,15.30
2023-05-13T15:54:23.205Z,15.30
2023-05-13T15:56:50.327Z,15.20
2023-05-13T15:59:17.621Z,15.00
2023-05-13T16:01:44.881Z,15.00
2023-05-13T16:04:11.945Z,15.00
2023-05-13T16:06:39.197Z,15.00
2023-05-13T16:09:06.479Z,15.00
2023-05-13T16:11:33.622Z,15.00
2023-05-13T16:14:00.842Z,15.00
2023-05-13T16:16:27.994Z,15.00
2023-05-13T16:18:55.160Z,15.00
2023-05-13T16:21:22.315Z,15.00
2023-05-13T16:23:51.056Z,14.80
2023-05-13T16:26:18.361Z,14.90
2023-05-13T16:28:45.437Z,14.80
2023-05-13T16:31:12.572Z,14.90
2023-05-13T16:33:39.687Z,14.90
2023-05-13T16:36:09.744Z,14.90
2023-05-13T16:38:36.800Z,14.90
2023-05-13T16:41:03.949Z,14.90
2023-05-13T16:43:31.011Z,15.00
2023-05-13T16:45:58.181Z,14.70
2023-05-13T16:48:25.342Z,14.70
2023-05-13T16:50:52.435Z,14.80
2023-05-13T16:53:22.301Z,14.70
2023-05-13T16:55:50.239Z,14.60
2023-05-13T16:58:17.782Z,14.50
2023-05-13T17:00:44.850Z,14.50
2023-05-13T17:03:13.480Z,14.40
2023-05-13T17:05:40.770Z,14.40
2023-05-13T17:08:07.896Z,14.50
2023-05-13T17:10:34.933Z,14.40
2023-05-13T17:13:02.120Z,14.40
2023-05-13T17:15:29.218Z,14.30
2023-05-13T17:17:56.392Z,14.40
2023-05-13T17:20:23.713Z,14.40
2023-05-13T17:22:50.997Z,14.50
2023-05-13T17:25:22.687Z,14.30
2023-05-13T17:27:49.742Z,14.30
2023-05-13T17:30:17.242Z,14.20
2023-05-13T17:32:44.690Z,14.20
2023-05-13T17:35:11.787Z,14.20
2023-05-13T17:37:38.928Z,14.30
2023-05-13T17:40:06.684Z,14.20
2023-05-13T17:42:33.804Z,14.10
2023-05-13T17:45:02.076Z,14.00
2023-05-13T17:47:29.616Z,14.00
2023-05-13T17:49:56.858Z,14.00
2023-05-13T17:52:23.945Z,14.10
2023-05-13T17:54:51.051Z,14.10
2023-05-13T17:57:18.154Z,13.90
2023-05-13T17:59:45.276Z,14.00
2023-05-13T18:02:12.431Z,14.00
2023-05-13T18:04:39.612Z,13.90
2023-05-13T18:07:06.619Z,14.00
2023-05-13T18:09:33.761Z,14.10
2023-05-13T18:12:00.872Z,13.90
2023-05-13T18:14:32.323Z,13.90
2023-05-13T18:17:00.187Z,13.90
2023-05-13T18:19:27.813Z,13.80
2023-05-13T18:21:54.956Z,13.80
2023-05-13T18:24:22.240Z,13.70
2023-05-13T18:26:49.404Z,13.70
2023-05-13T18:29:16.506Z,13.70
2023-05-13T18:31:43.639Z,13.60
2023-05-13T18:34:10.853Z,13.70
2023-05-13T18:36:38.025Z,13.70
2023-05-13T18:39:05.250Z,13.70
2023-05-13T18:41:32.402Z,13.60
2023-05-13T18:43:59.471Z,13.60
2023-05-13T18:46:26.544Z,13.50
2023-05-13T18:48:53.742Z,13.60
2023-05-13T18:51:21.132Z,13.60
2023-05-13T18:53:48.187Z,13.70
2023-05-13T18:56:15.232Z,13.70
2023-05-13T18:58:42.307Z,13.60
2023-05-13T19:01:09.473Z,13.70
2023-05-13T19:03:37.114Z,13.60
2023-05-13T19:06:04.724Z,13.60
2023-05-13T19:08:31.864Z,13.50
2023-05-13T19:10:58.986Z,13.50
2023-05-13T19:13:33.098Z,13.40
2023-05-13T19:16:06.885Z,13.40
2023-05-13T19:18:34.648Z,13.50
2023-05-13T19:21:01.786Z,13.30
2023-05-13T19:23:28.854Z,13.40
2023-05-13T19:25:55.956Z,13.10
2023-05-13T19:28:23.856Z,13.10
2023-05-13T19:30:50.932Z,13.00
2023-05-13T19:33:18.116Z,13.20
2023-05-13T19:35:45.521Z,13.00
2023-05-13T19:38:12.682Z,13.00
2023-05-13T19:40:39.708Z,13.20
2023-05-13T19:43:06.825Z,13.30
2023-05-13T19:45:34.378Z,13.20
2023-05-13T19:48:01.479Z,13.00
2023-05-13T19:50:28.526Z,13.00
2023-05-13T19:52:56.085Z,12.90
2023-05-13T19:55:23.334Z,13.00
2023-05-13T19:57:50.631Z,12.90
2023-05-13T20:00:17.970Z,12.90
2023-05-13T20:02:45.193Z,12.90
2023-05-13T20:05:12.375Z,12.80
2023-05-13T20:07:39.409Z,12.90
2023-05-13T20:10:07.310Z,12.90
2023-05-13T20:12:34.444Z,13.00
2023-05-13T20:15:02.014Z,13.00
2023-05-13T20:17:30.198Z,12.90
2023-05-13T20:19:57.446Z,12.90
2023-05-13T20:22:24.486Z,12.90
2023-05-13T20:24:52.259Z,13.00
2023-05-13T20:27:19.326Z,12.90
2023-05-13T20:29:48.034Z,12.90
2023-05-13T20:32:18.487Z,12.70
2023-05-13T20:34:45.554Z,12.80
2023-05-13T20:37:12.605Z,12.90
2023-05-13T20:39:39.616Z,13.00
2023-05-13T20:42:06.783Z,13.10
2023-05-13T20:44:33.811Z,13.10
2023-05-13T20:47:01.045Z,13.00
2023-05-13T20:49:28.254Z,13.00
2023-05-13T20:51:55.496Z,13.00
2023-05-13T20:54:22.711Z,12.90
2023-05-13T20:56:49.738Z,12.90
2023-05-13T20:59:16.796Z,12.90
2023-05-13T21:01:47.472Z,13.00
2023-05-13T21:04:14.784Z,12.90
2023-05-13T21:06:42.132Z,12.80
2023-05-13T21:09:09.254Z,12.90
2023-05-13T21:11:36.520Z,12.90
2023-05-13T21:14:03.717Z,12.80
2023-05-13T21:16:31.141Z,12.80
2023-05-13T21:18:58.632Z,12.90
2023-05-13T21:21:25.764Z,12.90
2023-05-13T21:23:52.835Z,12.80
2023-05-13T21:26:22.007Z,12.80
2023-05-13T21:28:49.119Z,12.80
2023-05-13T21:31:16.169Z,12.80
2023-05-13T21:33:43.285Z,12.70
2023-05-13T21:36:10.345Z,12.70
2023-05-13T21:38:37.402Z,12.70
2023-05-13T21:41:04.518Z,12.70
2023-05-13T21:43:31.558Z,12.60
2023-05-13T21:45:58.674Z,12.60
2023-05-13T21:48:25.982Z,12.60
2023-05-13T21:50:53.116Z,12.70
2023-05-13T21:53:20.232Z,12.60
2023-05-13T21:55:47.309Z,12.60
2023-05-13T21:58:14.605Z,12.70
2023-05-13T22:00:41.895Z,12.60
2023-05-13T22:03:09.027Z,12.60
2023-05-13T22:05:42.316Z,12.70
2023-05-13T22:08:12.910Z,12.50
2023-05-13T22:10:40.129Z,12.40
2023-05-13T22:13:07.286Z,12.50
2023-05-13T22:15:34.426Z,12.50
2023-05-13T22:18:01.517Z,12.50
2023-05-13T22:20:28.625Z,12.40
2023-05-13T22:22:55.658Z,12.30
2023-05-13T22:25:22.811Z,12.10
2023-05-13T22:27:51.260Z,12.20
2023-05-13T22:30:18.591Z,12.20
2023-05-13T22:32:45.842Z,12.40
2023-05-13T22:35:12.982Z,12.40
2023-05-13T22:37:40.049Z,12.40
2023-05-13T22:40:07.815Z,12.40
2023-05-13T22:42:34.907Z,12.50
2023-05-13T22:45:02.046Z,12.50
2023-05-13T22:47:29.111Z,12.60
2023-05-13T22:49:56.141Z,12.60
2023-05-13T22:52:23.173Z,12.60
2023-05-13T22:54:50.339Z,12.50
2023-05-13T22:57:17.400Z,12.50
2023-05-13T22:59:44.503Z,12.60
2023-05-13T23:02:11.692Z,12.60
2023-05-13T23:04:38.958Z,12.50
2023-05-13T23:07:06.022Z,12.50
2023-05-13T23:09:33.068Z,12.40
2023-05-13T23:12:00.143Z,12.50
2023-05-13T23:14:30.084Z,12.40
2023-05-13T23:16:57.249Z,12.40
2023-05-13T23:19:27.294Z,12.40
2023-05-13T23:21:54.390Z,12.30
2023-05-13T23:24:21.584Z,12.30
2023-05-13T23:26:49.338Z,12.20
2023-05-13T23:29:16.804Z,12.20
2023-05-13T23:31:43.988Z,12.20
2023-05-13T23:34:11.013Z,12.10
2023-05-13T23:36:38.160Z,12.10
2023-05-13T23:39:05.515Z,11.90
2023-05-13T23:41:34.956Z,12.00
2023-05-13T23:44:02.241Z,12.10
2023-05-13T23:46:29.301Z,12.20
2023-05-13T23:48:56.330Z,12.20
2023-05-13T23:51:23.563Z,12.30
2023-05-13T23:53:50.840Z,12.20
2023-05-13T23:56:17.893Z,12.20
2023-05-13T23:58:44.918Z,12.20
